sensor_id;sensor_type;location;lat;lon;timestamp;pressure;altitude;pressure_sealevel;temperature;humidity
76054;BME280;64752;48.870;9.082;2023-05-06T00:02:23;98123.91;;;13.36;97.43
76054;BME280;64752;48.870;9.082;2023-05-06T00:04:50;98120.44;;;13.36;96.79
76054;BME280;64752;48.870;9.082;2023-05-06T00:07:15;98119.47;;;13.38;96.46
76054;BME280;64752;48.870;9.082;2023-05-06T00:09:41;98116.88;;;13.38;96.70
76054;BME280;64752;48.870;9.082;2023-05-06T00:12:06;98116.16;;;13.35;96.91
76054;BME280;64752;48.870;9.082;2023-05-06T00:14:32;98120.09;;;13.43;95.62
76054;BME280;64752;48.870;9.082;2023-05-06T00:16:57;98113.56;;;13.35;96.27
76054;BME280;64752;48.870;9.082;2023-05-06T00:19:26;98122.13;;;13.37;95.82
76054;BME280;64752;48.870;9.082;2023-05-06T00:21:51;98108.19;;;13.38;95.83
76054;BME280;64752;48.870;9.082;2023-05-06T00:24:16;98119.72;;;13.32;96.16
76054;BME280;64752;48.870;9.082;2023-05-06T00:26:42;98113.63;;;13.33;96.08
76054;BME280;64752;48.870;9.082;2023-05-06T00:29:07;98108.97;;;13.19;96.78
76054;BME280;64752;48.870;9.082;2023-05-06T00:31:32;98114.31;;;13.37;95.30
76054;BME280;64752;48.870;9.082;2023-05-06T00:33:58;98107.66;;;13.29;96.37
76054;BME280;64752;48.870;9.082;2023-05-06T00:36:23;98104.53;;;13.21;96.08
76054;BME280;64752;48.870;9.082;2023-05-06T00:38:49;98109.03;;;13.18;96.65
76054;BME280;64752;48.870;9.082;2023-05-06T00:41:14;98105.81;;;13.13;97.03
76054;BME280;64752;48.870;9.082;2023-05-06T00:43:39;98103.16;;;13.14;97.02
76054;BME280;64752;48.870;9.082;2023-05-06T00:46:06;98107.06;;;13.23;96.46
76054;BME280;64752;48.870;9.082;2023-05-06T00:48:34;98108.06;;;13.20;96.92
76054;BME280;64752;48.870;9.082;2023-05-06T00:51:00;98108.56;;;13.28;96.95
76054;BME280;64752;48.870;9.082;2023-05-06T00:53:25;98104.41;;;13.24;96.91
76054;BME280;64752;48.870;9.082;2023-05-06T00:55:51;98102.16;;;13.17;97.26
76054;BME280;64752;48.870;9.082;2023-05-06T00:58:18;98109.13;;;13.16;97.11
76054;BME280;64752;48.870;9.082;2023-05-06T01:00:44;98112.38;;;13.01;98.03
76054;BME280;64752;48.870;9.082;2023-05-06T01:03:10;98103.78;;;12.99;97.87
76054;BME280;64752;48.870;9.082;2023-05-06T01:05:59;98114.66;;;12.88;98.75
76054;BME280;64752;48.870;9.082;2023-05-06T01:08:36;98110.22;;;12.90;99.07
76054;BME280;64752;48.870;9.082;2023-05-06T01:11:12;98116.81;;;12.99;98.82
76054;BME280;64752;48.870;9.082;2023-05-06T01:16:24;98106.66;;;12.92;98.80
76054;BME280;64752;48.870;9.082;2023-05-06T01:18:51;98103.28;;;12.90;98.43
76054;BME280;64752;48.870;9.082;2023-05-06T01:21:19;98111.22;;;12.87;98.70
76054;BME280;64752;48.870;9.082;2023-05-06T01:24:04;98111.69;;;12.77;99.33
76054;BME280;64752;48.870;9.082;2023-05-06T01:26:30;98110.19;;;12.71;99.96
76054;BME280;64752;48.870;9.082;2023-05-06T01:28:55;98111.56;;;12.80;99.36
76054;BME280;64752;48.870;9.082;2023-05-06T01:31:28;98110.91;;;12.75;99.52
76054;BME280;64752;48.870;9.082;2023-05-06T01:36:58;98113.22;;;12.60;100.00
76054;BME280;64752;48.870;9.082;2023-05-06T01:39:30;98118.88;;;12.70;100.00
76054;BME280;64752;48.870;9.082;2023-05-06T01:41:59;98123.31;;;12.68;100.00
76054;BME280;64752;48.870;9.082;2023-05-06T01:44:27;98114.41;;;12.73;100.00
76054;BME280;64752;48.870;9.082;2023-05-06T01:46:53;98113.94;;;12.84;100.00
76054;BME280;64752;48.870;9.082;2023-05-06T01:49:21;98115.78;;;12.82;99.81
76054;BME280;64752;48.870;9.082;2023-05-06T01:51:48;98117.31;;;12.86;100.00
76054;BME280;64752;48.870;9.082;2023-05-06T01:54:14;98118.38;;;12.82;100.00
76054;BME280;64752;48.870;9.082;2023-05-06T01:56:39;98107.50;;;12.93;100.00
76054;BME280;64752;48.870;9.082;2023-05-06T01:59:05;98116.16;;;12.93;100.00
76054;BME280;64752;48.870;9.082;2023-05-06T02:01:30;98109.94;;;12.98;100.00
76054;BME280;64752;48.870;9.082;2023-05-06T02:03:56;98108.28;;;12.95;100.00
76054;BME280;64752;48.870;9.082;2023-05-06T02:06:21;98099.81;;;12.90;100.00
76054;BME280;64752;48.870;9.082;2023-05-06T02:08:47;98104.97;;;12.91;100.00
76054;BME280;64752;48.870;9.082;2023-05-06T02:11:13;98106.59;;;12.94;99.72
76054;BME280;64752;48.870;9.082;2023-05-06T02:13:38;98102.25;;;12.95;100.00
76054;BME280;64752;48.870;9.082;2023-05-06T02:16:04;98107.06;;;13.04;99.16
76054;BME280;64752;48.870;9.082;2023-05-06T02:18:29;98108.81;;;13.03;99.19
76054;BME280;64752;48.870;9.082;2023-05-06T02:20:54;98110.50;;;13.04;99.39
76054;BME280;64752;48.870;9.082;2023-05-06T02:23:20;98104.38;;;13.05;100.00
76054;BME280;64752;48.870;9.082;2023-05-06T02:25:46;98106.41;;;12.99;99.72
76054;BME280;64752;48.870;9.082;2023-05-06T02:28:12;98097.63;;;13.01;99.97
76054;BME280;64752;48.870;9.082;2023-05-06T02:30:37;98095.81;;;13.03;99.35
76054;BME280;64752;48.870;9.082;2023-05-06T02:33:02;98105.13;;;12.88;99.77
76054;BME280;64752;48.870;9.082;2023-05-06T02:35:28;98098.88;;;12.92;100.00
76054;BME280;64752;48.870;9.082;2023-05-06T02:37:53;98103.03;;;12.97;99.69
76054;BME280;64752;48.870;9.082;2023-05-06T02:40:18;98096.81;;;12.99;99.10
76054;BME280;64752;48.870;9.082;2023-05-06T02:42:44;98105.94;;;13.09;99.43
76054;BME280;64752;48.870;9.082;2023-05-06T02:45:09;98097.41;;;13.06;98.42
76054;BME280;64752;48.870;9.082;2023-05-06T02:47:35;98096.34;;;13.10;98.17
76054;BME280;64752;48.870;9.082;2023-05-06T02:50:00;98089.72;;;13.03;98.29
76054;BME280;64752;48.870;9.082;2023-05-06T02:52:26;98093.44;;;12.97;98.85
76054;BME280;64752;48.870;9.082;2023-05-06T02:54:51;98098.59;;;12.99;98.70
76054;BME280;64752;48.870;9.082;2023-05-06T02:57:16;98091.00;;;12.94;98.45
76054;BME280;64752;48.870;9.082;2023-05-06T02:59:42;98090.28;;;12.90;98.84
76054;BME280;64752;48.870;9.082;2023-05-06T03:02:07;98095.66;;;12.86;99.06
76054;BME280;64752;48.870;9.082;2023-05-06T03:04:32;98097.72;;;12.79;99.46
76054;BME280;64752;48.870;9.082;2023-05-06T03:06:58;98095.94;;;12.80;99.80
76054;BME280;64752;48.870;9.082;2023-05-06T03:09:23;98100.38;;;12.78;100.00
76054;BME280;64752;48.870;9.082;2023-05-06T03:11:48;98097.22;;;12.69;100.00
76054;BME280;64752;48.870;9.082;2023-05-06T03:14:14;98100.88;;;12.65;100.00
76054;BME280;64752;48.870;9.082;2023-05-06T03:16:39;98099.31;;;12.61;100.00
76054;BME280;64752;48.870;9.082;2023-05-06T03:19:05;98103.16;;;12.52;100.00
76054;BME280;64752;48.870;9.082;2023-05-06T03:21:31;98103.41;;;12.46;100.00
76054;BME280;64752;48.870;9.082;2023-05-06T03:23:56;98104.31;;;12.45;100.00
76054;BME280;64752;48.870;9.082;2023-05-06T03:26:22;98109.81;;;12.38;100.00
76054;BME280;64752;48.870;9.082;2023-05-06T03:28:47;98100.31;;;12.37;100.00
76054;BME280;64752;48.870;9.082;2023-05-06T03:31:12;98103.06;;;12.33;100.00
76054;BME280;64752;48.870;9.082;2023-05-06T03:33:38;98098.16;;;12.26;100.00
76054;BME280;64752;48.870;9.082;2023-05-06T03:36:04;98099.69;;;12.31;100.00
76054;BME280;64752;48.870;9.082;2023-05-06T03:38:29;98102.19;;;12.33;100.00
76054;BME280;64752;48.870;9.082;2023-05-06T03:40:55;98092.94;;;12.26;100.00
76054;BME280;64752;48.870;9.082;2023-05-06T03:43:20;98094.91;;;12.21;100.00
76054;BME280;64752;48.870;9.082;2023-05-06T03:45:45;98088.72;;;12.23;100.00
76054;BME280;64752;48.870;9.082;2023-05-06T03:48:11;98089.41;;;12.06;100.00
76054;BME280;64752;48.870;9.082;2023-05-06T03:50:36;98089.16;;;11.90;100.00
76054;BME280;64752;48.870;9.082;2023-05-06T03:53:02;98084.66;;;11.72;100.00
76054;BME280;64752;48.870;9.082;2023-05-06T03:55:28;98086.81;;;11.61;100.00
76054;BME280;64752;48.870;9.082;2023-05-06T03:57:53;98091.72;;;11.45;100.00
76054;BME280;64752;48.870;9.082;2023-05-06T04:00:19;98087.59;;;11.39;100.00
76054;BME280;64752;48.870;9.082;2023-05-06T04:02:44;98099.19;;;11.30;100.00
76054;BME280;64752;48.870;9.082;2023-05-06T04:05:09;98092.84;;;11.37;100.00
76054;BME280;64752;48.870;9.082;2023-05-06T04:07:35;98087.56;;;11.17;100.00
76054;BME280;64752;48.870;9.082;2023-05-06T04:10:00;98093.44;;;10.97;100.00
76054;BME280;64752;48.870;9.082;2023-05-06T04:12:26;98082.00;;;11.03;100.00
76054;BME280;64752;48.870;9.082;2023-05-06T04:14:51;98090.00;;;11.22;100.00
76054;BME280;64752;48.870;9.082;2023-05-06T04:17:16;98082.22;;;11.22;100.00
76054;BME280;64752;48.870;9.082;2023-05-06T04:19:42;98089.63;;;11.07;100.00
76054;BME280;64752;48.870;9.082;2023-05-06T04:22:07;98086.16;;;11.08;100.00
76054;BME280;64752;48.870;9.082;2023-05-06T04:24:33;98089.53;;;11.34;100.00
76054;BME280;64752;48.870;9.082;2023-05-06T04:26:58;98093.28;;;11.27;100.00
76054;BME280;64752;48.870;9.082;2023-05-06T04:29:24;98097.44;;;11.31;100.00
76054;BME280;64752;48.870;9.082;2023-05-06T04:31:49;98105.72;;;11.17;100.00
76054;BME280;64752;48.870;9.082;2023-05-06T04:34:15;98101.59;;;11.11;100.00
76054;BME280;64752;48.870;9.082;2023-05-06T04:36:42;98100.81;;;11.09;100.00
76054;BME280;64752;48.870;9.082;2023-05-06T04:39:07;98104.19;;;11.11;100.00
76054;BME280;64752;48.870;9.082;2023-05-06T04:41:34;98109.09;;;11.19;100.00
76054;BME280;64752;48.870;9.082;2023-05-06T04:44:00;98099.13;;;11.32;100.00
76054;BME280;64752;48.870;9.082;2023-05-06T04:46:25;98106.91;;;11.55;100.00
76054;BME280;64752;48.870;9.082;2023-05-06T04:48:51;98105.84;;;11.61;100.00
76054;BME280;64752;48.870;9.082;2023-05-06T04:51:16;98115.13;;;11.67;100.00
76054;BME280;64752;48.870;9.082;2023-05-06T04:53:41;98115.03;;;11.70;100.00
76054;BME280;64752;48.870;9.082;2023-05-06T04:56:07;98114.00;;;11.98;100.00
76054;BME280;64752;48.870;9.082;2023-05-06T04:58:32;98114.41;;;12.73;100.00
76054;BME280;64752;48.870;9.082;2023-05-06T05:01:03;98113.41;;;13.17;100.00
76054;BME280;64752;48.870;9.082;2023-05-06T05:03:29;98116.28;;;13.32;95.62
76054;BME280;64752;48.870;9.082;2023-05-06T05:05:54;98117.38;;;13.26;93.49
76054;BME280;64752;48.870;9.082;2023-05-06T05:08:19;98123.13;;;13.72;93.69
76054;BME280;64752;48.870;9.082;2023-05-06T05:10:45;98115.03;;;14.51;87.30
76054;BME280;64752;48.870;9.082;2023-05-06T05:13:12;98119.34;;;14.52;85.42
76054;BME280;64752;48.870;9.082;2023-05-06T05:15:37;98118.53;;;14.87;85.12
76054;BME280;64752;48.870;9.082;2023-05-06T05:18:03;98125.19;;;15.92;82.42
76054;BME280;64752;48.870;9.082;2023-05-06T05:20:28;98134.50;;;16.14;79.74
76054;BME280;64752;48.870;9.082;2023-05-06T05:22:54;98135.06;;;16.19;77.69
76054;BME280;64752;48.870;9.082;2023-05-06T05:25:19;98140.44;;;16.48;78.12
76054;BME280;64752;48.870;9.082;2023-05-06T05:27:45;98135.34;;;16.45;77.57
76054;BME280;64752;48.870;9.082;2023-05-06T05:30:11;98133.63;;;17.49;75.56
76054;BME280;64752;48.870;9.082;2023-05-06T05:32:36;98138.00;;;17.05;75.61
76054;BME280;64752;48.870;9.082;2023-05-06T05:35:02;98136.16;;;18.21;70.58
76054;BME280;64752;48.870;9.082;2023-05-06T05:37:27;98148.59;;;18.04;71.30
76054;BME280;64752;48.870;9.082;2023-05-06T05:39:53;98149.44;;;18.59;68.92
76054;BME280;64752;48.870;9.082;2023-05-06T05:42:18;98148.53;;;19.26;67.16
76054;BME280;64752;48.870;9.082;2023-05-06T05:44:44;98142.31;;;19.27;66.09
76054;BME280;64752;48.870;9.082;2023-05-06T05:47:09;98142.31;;;19.01;66.62
76054;BME280;64752;48.870;9.082;2023-05-06T05:49:35;98142.94;;;19.05;66.56
76054;BME280;64752;48.870;9.082;2023-05-06T05:52:00;98148.31;;;20.41;62.65
76054;BME280;64752;48.870;9.082;2023-05-06T05:54:26;98144.03;;;21.47;57.99
76054;BME280;64752;48.870;9.082;2023-05-06T05:56:51;98145.78;;;21.58;56.55
76054;BME280;64752;48.870;9.082;2023-05-06T05:59:17;98144.13;;;20.98;59.26
76054;BME280;64752;48.870;9.082;2023-05-06T06:01:42;98141.56;;;21.21;59.73
76054;BME280;64752;48.870;9.082;2023-05-06T06:04:08;98146.13;;;19.23;64.05
76054;BME280;64752;48.870;9.082;2023-05-06T06:06:33;98142.00;;;21.04;59.91
76054;BME280;64752;48.870;9.082;2023-05-06T06:08:58;98156.19;;;19.80;62.89
76054;BME280;64752;48.870;9.082;2023-05-06T06:11:24;98147.78;;;19.11;66.06
76054;BME280;64752;48.870;9.082;2023-05-06T06:13:50;98150.88;;;20.54;62.76
76054;BME280;64752;48.870;9.082;2023-05-06T06:16:16;98148.56;;;20.63;60.50
76054;BME280;64752;48.870;9.082;2023-05-06T06:18:41;98149.75;;;19.84;62.48
76054;BME280;64752;48.870;9.082;2023-05-06T06:21:07;98147.38;;;20.18;63.42
76054;BME280;64752;48.870;9.082;2023-05-06T06:23:32;98149.06;;;20.07;61.43
76054;BME280;64752;48.870;9.082;2023-05-06T06:25:58;98147.22;;;19.70;64.04
76054;BME280;64752;48.870;9.082;2023-05-06T06:28:23;98143.00;;;20.30;61.04
76054;BME280;64752;48.870;9.082;2023-05-06T06:30:48;98142.31;;;20.39;60.99
76054;BME280;64752;48.870;9.082;2023-05-06T06:33:14;98155.38;;;21.92;57.56
76054;BME280;64752;48.870;9.082;2023-05-06T06:35:39;98153.63;;;22.48;55.51
76054;BME280;64752;48.870;9.082;2023-05-06T06:38:05;98159.53;;;20.56;59.73
76054;BME280;64752;48.870;9.082;2023-05-06T06:40:30;98170.75;;;20.10;62.07
76054;BME280;64752;48.870;9.082;2023-05-06T06:42:55;98161.81;;;20.13;62.14
76054;BME280;64752;48.870;9.082;2023-05-06T06:45:21;98168.38;;;20.68;61.41
76054;BME280;64752;48.870;9.082;2023-05-06T06:47:47;98169.44;;;20.29;62.83
76054;BME280;64752;48.870;9.082;2023-05-06T06:50:13;98176.53;;;20.76;60.62
76054;BME280;64752;48.870;9.082;2023-05-06T06:52:38;98166.78;;;22.27;55.64
76054;BME280;64752;48.870;9.082;2023-05-06T06:55:04;98165.47;;;20.95;59.84
76054;BME280;64752;48.870;9.082;2023-05-06T06:57:30;98171.66;;;21.30;58.08
76054;BME280;64752;48.870;9.082;2023-05-06T06:59:55;98161.78;;;21.09;58.79
76054;BME280;64752;48.870;9.082;2023-05-06T07:02:21;98164.13;;;22.70;53.94
76054;BME280;64752;48.870;9.082;2023-05-06T07:04:46;98162.88;;;23.49;50.81
76054;BME280;64752;48.870;9.082;2023-05-06T07:07:12;98174.31;;;22.20;54.33
76054;BME280;64752;48.870;9.082;2023-05-06T07:09:38;98169.22;;;25.17;47.88
76054;BME280;64752;48.870;9.082;2023-05-06T07:12:06;98168.59;;;23.54;50.34
76054;BME280;64752;48.870;9.082;2023-05-06T07:14:32;98174.25;;;25.30;47.27
76054;BME280;64752;48.870;9.082;2023-05-06T07:16:58;98169.22;;;26.93;42.26
76054;BME280;64752;48.870;9.082;2023-05-06T07:19:25;98165.09;;;25.52;46.01
76054;BME280;64752;48.870;9.082;2023-05-06T07:21:51;98169.69;;;26.88;42.13
76054;BME280;64752;48.870;9.082;2023-05-06T07:24:16;98172.44;;;24.72;47.36
76054;BME280;64752;48.870;9.082;2023-05-06T07:26:42;98174.53;;;24.88;46.08
76054;BME280;64752;48.870;9.082;2023-05-06T07:29:08;98170.34;;;26.90;40.85
76054;BME280;64752;48.870;9.082;2023-05-06T07:31:33;98165.94;;;25.90;42.52
76054;BME280;64752;48.870;9.082;2023-05-06T07:33:59;98170.56;;;25.50;42.84
76054;BME280;64752;48.870;9.082;2023-05-06T07:36:24;98170.81;;;24.20;46.43
76054;BME280;64752;48.870;9.082;2023-05-06T07:38:51;98163.50;;;26.52;42.34
76054;BME280;64752;48.870;9.082;2023-05-06T07:41:16;98159.44;;;27.20;40.45
76054;BME280;64752;48.870;9.082;2023-05-06T07:43:42;98164.63;;;27.03;38.86
76054;BME280;64752;48.870;9.082;2023-05-06T07:46:08;98163.88;;;26.11;40.98
76054;BME280;64752;48.870;9.082;2023-05-06T07:48:33;98175.94;;;26.33;39.98
76054;BME280;64752;48.870;9.082;2023-05-06T07:50:59;98169.66;;;24.83;42.50
76054;BME280;64752;48.870;9.082;2023-05-06T07:53:24;98175.81;;;28.12;38.21
76054;BME280;64752;48.870;9.082;2023-05-06T07:55:52;98175.00;;;29.28;36.14
76054;BME280;64752;48.870;9.082;2023-05-06T07:58:19;98180.78;;;25.45;42.77
76054;BME280;64752;48.870;9.082;2023-05-06T08:00:54;98174.44;;;27.21;39.24
76054;BME280;64752;48.870;9.082;2023-05-06T08:03:27;98181.47;;;28.76;37.29
76054;BME280;64752;48.870;9.082;2023-05-06T08:05:52;98176.19;;;27.56;36.79
76054;BME280;64752;48.870;9.082;2023-05-06T08:08:19;98180.75;;;24.28;42.50
76054;BME280;64752;48.870;9.082;2023-05-06T08:10:45;98180.34;;;24.42;43.53
76054;BME280;64752;48.870;9.082;2023-05-06T08:13:11;98180.72;;;27.64;37.88
76054;BME280;64752;48.870;9.082;2023-05-06T08:15:37;98190.81;;;28.13;37.69
76054;BME280;64752;48.870;9.082;2023-05-06T08:18:03;98188.53;;;27.13;39.34
76054;BME280;64752;48.870;9.082;2023-05-06T08:20:29;98187.75;;;27.21;37.78
76054;BME280;64752;48.870;9.082;2023-05-06T08:22:54;98181.50;;;25.85;39.11
76054;BME280;64752;48.870;9.082;2023-05-06T08:25:19;98183.56;;;24.46;43.23
76054;BME280;64752;48.870;9.082;2023-05-06T08:27:45;98182.81;;;23.32;46.53
76054;BME280;64752;48.870;9.082;2023-05-06T08:30:11;98184.25;;;23.36;46.12
76054;BME280;64752;48.870;9.082;2023-05-06T08:32:37;98185.09;;;23.98;44.10
76054;BME280;64752;48.870;9.082;2023-05-06T08:35:04;98179.97;;;22.16;48.41
76054;BME280;64752;48.870;9.082;2023-05-06T08:37:30;98184.56;;;23.43;45.56
76054;BME280;64752;48.870;9.082;2023-05-06T08:39:55;98201.06;;;25.84;40.96
76054;BME280;64752;48.870;9.082;2023-05-06T08:42:24;98193.94;;;27.47;37.22
76054;BME280;64752;48.870;9.082;2023-05-06T08:44:50;98191.44;;;28.06;36.24
76054;BME280;64752;48.870;9.082;2023-05-06T08:47:17;98178.63;;;28.69;34.62
76054;BME280;64752;48.870;9.082;2023-05-06T08:49:43;98188.44;;;26.51;38.99
76054;BME280;64752;48.870;9.082;2023-05-06T08:52:08;98192.53;;;25.43;42.10
76054;BME280;64752;48.870;9.082;2023-05-06T08:54:34;98189.97;;;28.12;36.34
76054;BME280;64752;48.870;9.082;2023-05-06T08:57:04;98192.03;;;28.26;35.52
76054;BME280;64752;48.870;9.082;2023-05-06T08:59:32;98191.06;;;27.67;36.80
76054;BME280;64752;48.870;9.082;2023-05-06T09:02:02;98189.25;;;28.44;35.19
76054;BME280;64752;48.870;9.082;2023-05-06T09:04:28;98183.31;;;29.00;34.34
76054;BME280;64752;48.870;9.082;2023-05-06T09:06:56;98188.47;;;25.95;38.20
76054;BME280;64752;48.870;9.082;2023-05-06T09:09:22;98185.50;;;26.90;36.26
76054;BME280;64752;48.870;9.082;2023-05-06T09:11:48;98184.19;;;27.56;35.01
76054;BME280;64752;48.870;9.082;2023-05-06T09:14:20;98192.00;;;28.86;32.27
76054;BME280;64752;48.870;9.082;2023-05-06T09:16:50;98179.84;;;28.99;33.00
76054;BME280;64752;48.870;9.082;2023-05-06T09:19:18;98184.13;;;30.53;30.66
76054;BME280;64752;48.870;9.082;2023-05-06T09:21:46;98184.03;;;30.70;30.42
76054;BME280;64752;48.870;9.082;2023-05-06T09:24:16;98182.16;;;30.70;30.25
76054;BME280;64752;48.870;9.082;2023-05-06T09:26:43;98180.16;;;29.54;32.04
76054;BME280;64752;48.870;9.082;2023-05-06T09:29:09;98177.81;;;28.10;34.06
76054;BME280;64752;48.870;9.082;2023-05-06T09:31:41;98176.44;;;27.01;36.52
76054;BME280;64752;48.870;9.082;2023-05-06T09:34:07;98169.13;;;26.49;36.05
76054;BME280;64752;48.870;9.082;2023-05-06T09:36:33;98171.59;;;27.66;34.87
76054;BME280;64752;48.870;9.082;2023-05-06T09:38:58;98170.31;;;28.13;33.76
76054;BME280;64752;48.870;9.082;2023-05-06T09:41:24;98176.31;;;29.40;30.81
76054;BME280;64752;48.870;9.082;2023-05-06T09:43:54;98169.25;;;30.97;29.75
76054;BME280;64752;48.870;9.082;2023-05-06T09:46:21;98166.69;;;31.27;28.50
76054;BME280;64752;48.870;9.082;2023-05-06T09:48:49;98170.03;;;30.28;29.43
76054;BME280;64752;48.870;9.082;2023-05-06T09:51:14;98165.97;;;30.41;30.63
76054;BME280;64752;48.870;9.082;2023-05-06T09:53:40;98159.44;;;31.65;28.96
76054;BME280;64752;48.870;9.082;2023-05-06T09:56:07;98164.94;;;30.42;29.32
76054;BME280;64752;48.870;9.082;2023-05-06T09:58:34;98153.66;;;30.54;29.60
76054;BME280;64752;48.870;9.082;2023-05-06T10:01:02;98152.03;;;30.45;30.44
76054;BME280;64752;48.870;9.082;2023-05-06T10:03:31;98156.91;;;29.54;29.92
76054;BME280;64752;48.870;9.082;2023-05-06T10:05:59;98151.13;;;29.18;31.94
76054;BME280;64752;48.870;9.082;2023-05-06T10:08:26;98149.22;;;29.59;29.56
76054;BME280;64752;48.870;9.082;2023-05-06T10:10:52;98140.59;;;30.28;28.76
76054;BME280;64752;48.870;9.082;2023-05-06T10:13:21;98139.59;;;31.22;28.20
76054;BME280;64752;48.870;9.082;2023-05-06T10:15:49;98150.78;;;28.96;31.24
76054;BME280;64752;48.870;9.082;2023-05-06T10:18:15;98145.31;;;32.23;26.27
76054;BME280;64752;48.870;9.082;2023-05-06T10:20:41;98132.66;;;30.43;28.85
76054;BME280;64752;48.870;9.082;2023-05-06T10:25:42;98136.06;;;29.97;29.46
76054;BME280;64752;48.870;9.082;2023-05-06T10:28:10;98137.72;;;30.61;26.85
76054;BME280;64752;48.870;9.082;2023-05-06T10:30:37;98135.72;;;32.50;25.81
76054;BME280;64752;48.870;9.082;2023-05-06T10:33:08;98130.97;;;29.15;30.43
76054;BME280;64752;48.870;9.082;2023-05-06T10:37:59;98124.94;;;30.48;28.51
76054;BME280;64752;48.870;9.082;2023-05-06T10:40:26;98118.31;;;30.36;27.90
76054;BME280;64752;48.870;9.082;2023-05-06T10:43:18;98120.31;;;31.41;27.41
76054;BME280;64752;48.870;9.082;2023-05-06T10:46:03;98121.59;;;30.92;27.55
76054;BME280;64752;48.870;9.082;2023-05-06T10:48:30;98120.00;;;31.96;25.45
76054;BME280;64752;48.870;9.082;2023-05-06T10:56:21;98109.22;;;33.40;25.31
76054;BME280;64752;48.870;9.082;2023-05-06T10:58:47;98109.06;;;31.08;29.06
76054;BME280;64752;48.870;9.082;2023-05-06T11:01:13;98090.63;;;33.87;24.70
76054;BME280;64752;48.870;9.082;2023-05-06T11:03:41;98102.91;;;33.61;24.78
76054;BME280;64752;48.870;9.082;2023-05-06T11:06:07;98092.44;;;31.87;26.78
76054;BME280;64752;48.870;9.082;2023-05-06T11:08:33;98085.31;;;29.89;29.78
76054;BME280;64752;48.870;9.082;2023-05-06T11:10:58;98089.66;;;32.10;26.97
76054;BME280;64752;48.870;9.082;2023-05-06T11:15:51;98084.09;;;32.98;25.08
76054;BME280;64752;48.870;9.082;2023-05-06T11:26:09;98071.72;;;34.28;23.87
76054;BME280;64752;48.870;9.082;2023-05-06T11:28:35;98073.19;;;33.69;24.70
76054;BME280;64752;48.870;9.082;2023-05-06T11:31:01;98074.84;;;32.57;25.98
76054;BME280;64752;48.870;9.082;2023-05-06T11:33:31;98071.66;;;32.97;26.08
76054;BME280;64752;48.870;9.082;2023-05-06T11:35:58;98074.97;;;32.06;26.71
76054;BME280;64752;48.870;9.082;2023-05-06T11:38:25;98075.84;;;32.56;25.66
76054;BME280;64752;48.870;9.082;2023-05-06T11:40:51;98073.91;;;29.95;29.00
76054;BME280;64752;48.870;9.082;2023-05-06T11:43:16;98079.44;;;31.69;27.23
76054;BME280;64752;48.870;9.082;2023-05-06T11:45:44;98075.78;;;34.11;23.48
76054;BME280;64752;48.870;9.082;2023-05-06T11:48:11;98064.81;;;31.72;27.06
76054;BME280;64752;48.870;9.082;2023-05-06T11:50:37;98065.22;;;34.09;24.36
76054;BME280;64752;48.870;9.082;2023-05-06T11:53:03;98064.13;;;33.49;24.96
76054;BME280;64752;48.870;9.082;2023-05-06T11:55:28;98073.09;;;32.93;25.76
76054;BME280;64752;48.870;9.082;2023-05-06T11:57:54;98069.81;;;33.60;24.98
76054;BME280;64752;48.870;9.082;2023-05-06T12:00:19;98078.75;;;33.33;24.58
76054;BME280;64752;48.870;9.082;2023-05-06T12:02:44;98067.72;;;32.64;25.22
76054;BME280;64752;48.870;9.082;2023-05-06T12:05:10;98069.06;;;33.80;24.46
76054;BME280;64752;48.870;9.082;2023-05-06T12:07:36;98077.56;;;34.59;23.51
76054;BME280;64752;48.870;9.082;2023-05-06T12:10:03;98065.16;;;33.83;23.67
76054;BME280;64752;48.870;9.082;2023-05-06T12:12:29;98064.69;;;34.27;23.34
76054;BME280;64752;48.870;9.082;2023-05-06T12:14:56;98065.72;;;33.65;24.52
76054;BME280;64752;48.870;9.082;2023-05-06T12:17:22;98063.84;;;33.30;24.26
76054;BME280;64752;48.870;9.082;2023-05-06T12:19:47;98062.72;;;32.90;24.66
76054;BME280;64752;48.870;9.082;2023-05-06T12:22:18;98057.53;;;32.02;25.61
76054;BME280;64752;48.870;9.082;2023-05-06T12:24:44;98054.00;;;30.67;26.96
76054;BME280;64752;48.870;9.082;2023-05-06T12:27:10;98056.47;;;30.54;27.77
76054;BME280;64752;48.870;9.082;2023-05-06T12:29:35;98062.53;;;32.91;25.30
76054;BME280;64752;48.870;9.082;2023-05-06T12:32:07;98057.53;;;32.88;25.61
76054;BME280;64752;48.870;9.082;2023-05-06T12:34:40;98055.22;;;32.35;25.82
76054;BME280;64752;48.870;9.082;2023-05-06T12:37:08;98058.28;;;31.15;27.32
76054;BME280;64752;48.870;9.082;2023-05-06T12:39:38;98053.78;;;30.08;27.67
76054;BME280;64752;48.870;9.082;2023-05-06T12:42:04;98053.16;;;30.52;27.70
76054;BME280;64752;48.870;9.082;2023-05-06T12:44:37;98050.22;;;29.84;29.31
76054;BME280;64752;48.870;9.082;2023-05-06T12:47:23;98048.59;;;27.45;32.09
76054;BME280;64752;48.870;9.082;2023-05-06T12:52:20;98051.66;;;29.55;29.78
76054;BME280;64752;48.870;9.082;2023-05-06T12:54:46;98058.16;;;29.21;29.79
76054;BME280;64752;48.870;9.082;2023-05-06T12:57:12;98044.78;;;29.21;29.03
76054;BME280;64752;48.870;9.082;2023-05-06T12:59:38;98049.50;;;28.37;30.90
76054;BME280;64752;48.870;9.082;2023-05-06T13:02:04;98046.47;;;28.98;31.46
76054;BME280;64752;48.870;9.082;2023-05-06T13:04:30;98044.16;;;28.29;31.33
76054;BME280;64752;48.870;9.082;2023-05-06T13:06:56;98042.94;;;27.91;32.70
76054;BME280;64752;48.870;9.082;2023-05-06T13:09:22;98042.84;;;28.58;32.47
76054;BME280;64752;48.870;9.082;2023-05-06T13:11:47;98040.47;;;28.14;33.31
76054;BME280;64752;48.870;9.082;2023-05-06T13:14:13;98026.63;;;29.56;31.43
76054;BME280;64752;48.870;9.082;2023-05-06T13:16:38;98026.34;;;29.43;30.91
76054;BME280;64752;48.870;9.082;2023-05-06T13:19:04;98020.94;;;30.98;29.13
76054;BME280;64752;48.870;9.082;2023-05-06T13:21:30;98014.00;;;30.51;29.07
76054;BME280;64752;48.870;9.082;2023-05-06T13:23:58;98011.66;;;31.75;28.23